Time;durP1;ratioP1;P1;durP2;ratioP2;P2;SDS_P1;SDS_P2;PMS_P1;PMS_P2;Temp;Humidity;BMP_temperature;BMP_pressure;BME280_temperature;BME280_humidity;BME280_pressure;Samples;Min_cycle;Max_cycle;Signal;HPM_P1;HPM_P2
2021/11/06 00:01:48;;;;;;;;;;;8.10;99.90;;;;;;4987114;28;19922;-74
2021/11/06 00:04:14;;;;;;;;;;;8.10;99.90;;;;;;4969754;28;19914;-74
2021/11/06 00:06:44;;;;;;;;;;;8.10;99.90;;;;;;4989327;28;19913;-74
2021/11/06 00:09:09;;;;;;;;;;;8.10;99.90;;;;;;4964618;28;19910;-74
2021/11/06 00:11:35;;;;;;;;;;;8.10;99.90;;;;;;4971150;28;19914;-74
2021/11/06 00:14:00;;;;;;;;;;;8.10;99.90;;;;;;4989502;28;19914;-74
2021/11/06 00:16:26;;;;;;;;;;;8.10;99.90;;;;;;4971054;28;20060;-73
2021/11/06 00:18:51;;;;;;;;;;;8.20;99.90;;;;;;4989218;28;19925;-74
2021/11/06 00:21:16;;;;;;;;;;;8.20;99.90;;;;;;4987885;28;20004;-74
2021/11/06 00:23:42;;;;;;;;;;;8.20;99.90;;;;;;4965462;28;19913;-74
2021/11/06 00:26:07;;;;;;;;;;;8.20;99.90;;;;;;4987047;28;19910;-74
2021/11/06 00:28:33;;;;;;;;;;;8.20;99.90;;;;;;4988629;28;19914;-73
2021/11/06 00:30:58;;;;;;;;;;;8.20;99.90;;;;;;4972852;28;19914;-74
2021/11/06 00:33:23;;;;;;;;;;;8.20;99.90;;;;;;4992098;28;20385;-74
2021/11/06 00:35:49;;;;;;;;;;;8.20;99.90;;;;;;4993928;28;19916;-74
2021/11/06 00:38:14;;;;;;;;;;;8.30;99.90;;;;;;4992801;28;19940;-73
2021/11/06 00:40:40;;;;;;;;;;;8.30;99.90;;;;;;4975737;28;20324;-74
2021/11/06 00:43:05;;;;;;;;;;;8.20;99.90;;;;;;4990645;28;19913;-74
2021/11/06 00:45:31;;;;;;;;;;;8.30;99.90;;;;;;4969669;28;19944;-74
2021/11/06 00:47:56;;;;;;;;;;;8.30;99.90;;;;;;4993374;28;20004;-74
2021/11/06 00:50:22;;;;;;;;;;;8.30;99.90;;;;;;4992115;28;19968;-74
2021/11/06 00:52:48;;;;;;;;;;;8.30;99.90;;;;;;4992354;28;20562;-73
2021/11/06 00:55:14;;;;;;;;;;;8.30;99.90;;;;;;4993489;28;19972;-73
2021/11/06 00:57:40;;;;;;;;;;;8.20;99.90;;;;;;4991448;28;19914;-73
2021/11/06 01:00:06;;;;;;;;;;;8.20;99.90;;;;;;4992829;28;20372;-73
2021/11/06 01:02:32;;;;;;;;;;;8.20;99.90;;;;;;4990041;28;19929;-73
2021/11/06 01:04:57;;;;;;;;;;;8.20;99.90;;;;;;4992747;28;19914;-73
2021/11/06 01:07:23;;;;;;;;;;;8.30;99.90;;;;;;4993028;28;20033;-74
2021/11/06 01:09:48;;;;;;;;;;;8.20;99.90;;;;;;4968429;28;19914;-74
2021/11/06 01:12:14;;;;;;;;;;;8.30;99.90;;;;;;4973106;28;19922;-73
2021/11/06 01:14:39;;;;;;;;;;;8.20;99.90;;;;;;4992661;28;19924;-74
2021/11/06 01:17:05;;;;;;;;;;;8.30;99.90;;;;;;4990772;28;19917;-73
2021/11/06 01:19:30;;;;;;;;;;;8.30;99.90;;;;;;4991507;28;19914;-74
2021/11/06 01:21:55;;;;;;;;;;;8.30;99.90;;;;;;4991992;28;19922;-74
2021/11/06 01:24:21;;;;;;;;;;;8.30;99.90;;;;;;4975608;28;19914;-73
2021/11/06 01:26:46;;;;;;;;;;;8.30;99.90;;;;;;4989524;28;19922;-75
2021/11/06 01:29:12;;;;;;;;;;;8.30;99.90;;;;;;4992793;28;19917;-75
2021/11/06 01:31:37;;;;;;;;;;;8.30;99.90;;;;;;4991905;28;19913;-74
2021/11/06 01:34:03;;;;;;;;;;;8.30;99.90;;;;;;4966732;28;20456;-74
2021/11/06 01:36:28;;;;;;;;;;;8.30;99.90;;;;;;4992491;28;19993;-75
2021/11/06 01:38:54;;;;;;;;;;;8.30;99.90;;;;;;4974669;28;20361;-75
2021/11/06 01:41:19;;;;;;;;;;;8.30;99.90;;;;;;4992568;28;19924;-74
2021/11/06 01:43:45;;;;;;;;;;;8.30;99.90;;;;;;4972634;28;19941;-75
2021/11/06 01:46:11;;;;;;;;;;;8.30;99.90;;;;;;4973884;28;19913;-75
2021/11/06 01:48:36;;;;;;;;;;;8.30;99.90;;;;;;4974667;28;19965;-75
2021/11/06 01:51:03;;;;;;;;;;;8.40;99.90;;;;;;4991060;28;20610;-75
2021/11/06 01:53:29;;;;;;;;;;;8.40;99.90;;;;;;4991088;28;19917;-74
2021/11/06 01:55:55;;;;;;;;;;;8.30;99.90;;;;;;4991354;28;19914;-74
2021/11/06 01:58:22;;;;;;;;;;;8.40;99.90;;;;;;4992047;28;19918;-74
2021/11/06 02:00:47;;;;;;;;;;;8.40;99.90;;;;;;4991345;28;19921;-75
2021/11/06 02:03:14;;;;;;;;;;;8.40;99.90;;;;;;4991531;28;19921;-74
2021/11/06 02:05:40;;;;;;;;;;;8.40;99.90;;;;;;4990963;28;20428;-74
2021/11/06 02:08:05;;;;;;;;;;;8.30;99.90;;;;;;4973121;28;19913;-74
2021/11/06 02:10:31;;;;;;;;;;;8.40;99.90;;;;;;4989846;28;19967;-75
2021/11/06 02:12:56;;;;;;;;;;;8.30;99.90;;;;;;4990503;28;19957;-72
2021/11/06 02:15:22;;;;;;;;;;;8.30;99.90;;;;;;4990943;28;19917;-72
2021/11/06 02:17:49;;;;;;;;;;;8.30;99.90;;;;;;4967703;28;20285;-72
2021/11/06 02:20:15;;;;;;;;;;;8.30;99.90;;;;;;4965831;28;19954;-73
2021/11/06 02:22:40;;;;;;;;;;;8.30;99.90;;;;;;4989866;28;19967;-72
2021/11/06 02:25:06;;;;;;;;;;;8.20;99.90;;;;;;4990852;28;19913;-75
2021/11/06 02:27:32;;;;;;;;;;;8.20;99.90;;;;;;4989805;28;19914;-74
2021/11/06 02:29:58;;;;;;;;;;;8.20;99.90;;;;;;4990936;28;19924;-75
2021/11/06 02:32:23;;;;;;;;;;;8.20;99.90;;;;;;4987630;28;19920;-74
2021/11/06 02:34:49;;;;;;;;;;;8.10;99.90;;;;;;4989528;28;19914;-74
2021/11/06 02:37:15;;;;;;;;;;;8.10;99.90;;;;;;4990576;28;20228;-74
2021/11/06 02:39:40;;;;;;;;;;;8.10;99.90;;;;;;4973303;28;19992;-73
2021/11/06 02:42:07;;;;;;;;;;;8.10;99.90;;;;;;4990080;28;19918;-74
2021/11/06 02:44:33;;;;;;;;;;;8.10;99.90;;;;;;4990892;28;19918;-74
2021/11/06 02:46:59;;;;;;;;;;;8.20;99.90;;;;;;4971151;28;20183;-74
2021/11/06 02:49:24;;;;;;;;;;;8.20;99.90;;;;;;4988215;28;20372;-74
2021/11/06 02:51:50;;;;;;;;;;;8.20;99.90;;;;;;4990047;28;20304;-74
2021/11/06 02:54:15;;;;;;;;;;;8.20;99.90;;;;;;4989317;28;19914;-74
2021/11/06 02:56:41;;;;;;;;;;;8.20;99.90;;;;;;4991098;28;19964;-74
2021/11/06 02:59:06;;;;;;;;;;;8.20;99.90;;;;;;4972168;28;19921;-75
2021/11/06 03:01:32;;;;;;;;;;;8.20;99.90;;;;;;4988505;28;20356;-74
2021/11/06 03:03:57;;;;;;;;;;;8.20;99.90;;;;;;4987039;28;19918;-74
2021/11/06 03:06:23;;;;;;;;;;;8.20;99.90;;;;;;4972442;28;20396;-74
2021/11/06 03:08:48;;;;;;;;;;;8.20;99.90;;;;;;4966811;28;20001;-74
2021/11/06 03:11:20;;;;;;;;;;;8.20;99.90;;;;;;4990306;28;20005;-75
2021/11/06 03:13:48;;;;;;;;;;;8.20;99.90;;;;;;4984213;28;20308;-74
2021/11/06 03:16:45;;;;;;;;;;;8.20;99.90;;;;;;4969580;28;20060;-75
2021/11/06 03:19:31;;;;;;;;;;;8.20;99.90;;;;;;4981878;28;19922;-75
2021/11/06 03:22:22;;;;;;;;;;;8.20;99.90;;;;;;4989935;28;19960;-75
2021/11/06 03:24:48;;;;;;;;;;;8.20;99.90;;;;;;4987744;28;19909;-75
2021/11/06 03:27:13;;;;;;;;;;;8.20;99.90;;;;;;4948985;28;20021;-75
2021/11/06 03:30:19;;;;;;;;;;;8.20;99.90;;;;;;4949391;28;19926;-75
2021/11/06 03:33:05;;;;;;;;;;;8.30;99.90;;;;;;4982411;28;20005;-75
2021/11/06 03:35:57;;;;;;;;;;;8.20;99.90;;;;;;4989586;28;19918;-75
2021/11/06 03:39:20;;;;;;;;;;;8.30;99.90;;;;;;4989770;28;19918;-76
2021/11/06 03:42:16;;;;;;;;;;;8.30;99.90;;;;;;4886941;29;19948;-75
2021/11/06 03:44:45;;;;;;;;;;;8.30;99.90;;;;;;4893398;28;19917;-75
2021/11/06 03:47:18;;;;;;;;;;;8.30;99.90;;;;;;4983487;28;19953;-75
2021/11/06 03:49:45;;;;;;;;;;;8.30;99.90;;;;;;4989502;28;20000;-75
2021/11/06 03:52:13;;;;;;;;;;;8.30;99.90;;;;;;4987853;28;19918;-76
2021/11/06 03:55:33;;;;;;;;;;;8.30;99.90;;;;;;4979354;28;19989;-75
2021/11/06 03:58:13;;;;;;;;;;;8.30;99.90;;;;;;4989778;28;19922;-75
2021/11/06 04:01:05;;;;;;;;;;;8.30;99.90;;;;;;4960784;28;20416;-75
2021/11/06 04:03:35;;;;;;;;;;;8.30;99.90;;;;;;4987585;28;19920;-75
2021/11/06 04:06:23;;;;;;;;;;;8.30;99.90;;;;;;4989670;28;20065;-75
2021/11/06 04:08:54;;;;;;;;;;;8.30;99.90;;;;;;4971789;28;19918;-75
2021/11/06 04:11:21;;;;;;;;;;;8.30;99.90;;;;;;4990058;28;19918;-75
2021/11/06 04:13:48;;;;;;;;;;;8.30;99.90;;;;;;4972251;28;19961;-75
2021/11/06 04:16:15;;;;;;;;;;;8.30;99.90;;;;;;4965186;28;19953;-76
2021/11/06 04:18:41;;;;;;;;;;;8.40;99.90;;;;;;4973455;28;19918;-75
2021/11/06 04:21:32;;;;;;;;;;;8.40;99.90;;;;;;4971811;28;19925;-75
2021/11/06 04:24:02;;;;;;;;;;;8.30;99.90;;;;;;4991552;28;20389;-75
2021/11/06 04:26:37;;;;;;;;;;;8.30;99.90;;;;;;4971838;28;19924;-75
2021/11/06 04:29:03;;;;;;;;;;;8.30;99.90;;;;;;4966718;28;20004;-75
2021/11/06 04:31:30;;;;;;;;;;;8.30;99.90;;;;;;4988341;28;20048;-75
2021/11/06 04:34:01;;;;;;;;;;;8.30;99.90;;;;;;4990830;28;19922;-75
2021/11/06 04:36:27;;;;;;;;;;;8.30;99.90;;;;;;4972210;28;19914;-75
2021/11/06 04:38:55;;;;;;;;;;;8.30;99.90;;;;;;4951277;28;19914;-74
2021/11/06 04:41:20;;;;;;;;;;;8.30;99.90;;;;;;4972638;28;20415;-75
2021/11/06 04:43:46;;;;;;;;;;;8.20;99.90;;;;;;4990432;28;19918;-75
2021/11/06 04:46:11;;;;;;;;;;;8.20;99.90;;;;;;4989332;28;20490;-75
2021/11/06 04:48:37;;;;;;;;;;;8.20;99.90;;;;;;4991023;28;19953;-75
2021/11/06 04:51:03;;;;;;;;;;;8.20;99.90;;;;;;4989970;28;20001;-75
2021/11/06 04:53:28;;;;;;;;;;;8.20;99.90;;;;;;4973485;28;19910;-75
2021/11/06 04:55:53;;;;;;;;;;;8.20;99.90;;;;;;4989520;28;19918;-75
2021/11/06 04:58:19;;;;;;;;;;;8.20;99.90;;;;;;4989713;28;19921;-75
2021/11/06 05:00:44;;;;;;;;;;;8.20;99.90;;;;;;4988531;28;19929;-75
2021/11/06 05:03:14;;;;;;;;;;;8.20;99.90;;;;;;4965141;28;20004;-75
2021/11/06 05:05:40;;;;;;;;;;;8.20;99.90;;;;;;4989402;28;19941;-75
2021/11/06 05:08:05;;;;;;;;;;;8.20;99.90;;;;;;4990019;28;20487;-75
2021/11/06 05:10:31;;;;;;;;;;;8.20;99.90;;;;;;4991366;28;19949;-75
2021/11/06 05:12:56;;;;;;;;;;;8.20;99.90;;;;;;4972554;28;19913;-75
2021/11/06 05:15:22;;;;;;;;;;;8.20;99.90;;;;;;4990526;28;20139;-75
2021/11/06 05:17:47;;;;;;;;;;;8.30;99.90;;;;;;4991326;28;20290;-75
2021/11/06 05:20:13;;;;;;;;;;;8.30;99.90;;;;;;4993689;28;19910;-74
2021/11/06 05:22:39;;;;;;;;;;;8.30;99.90;;;;;;4992581;28;20021;-74
2021/11/06 05:25:06;;;;;;;;;;;8.30;99.90;;;;;;4993785;28;20330;-72
2021/11/06 05:27:32;;;;;;;;;;;8.30;99.90;;;;;;4992062;28;20008;-72
2021/11/06 05:29:59;;;;;;;;;;;8.30;99.90;;;;;;4992539;28;20016;-72
2021/11/06 05:32:24;;;;;;;;;;;8.30;99.90;;;;;;4989852;28;20405;-72
2021/11/06 05:34:51;;;;;;;;;;;8.30;99.90;;;;;;4992664;28;20013;-72
2021/11/06 05:37:16;;;;;;;;;;;8.30;99.90;;;;;;4974232;28;19918;-71
2021/11/06 05:39:42;;;;;;;;;;;8.30;99.90;;;;;;4992379;28;19948;-71
2021/11/06 05:42:07;;;;;;;;;;;8.30;99.90;;;;;;4990804;28;19943;-71
2021/11/06 05:44:33;;;;;;;;;;;8.30;99.90;;;;;;4992086;28;20281;-71
2021/11/06 05:46:58;;;;;;;;;;;8.30;99.90;;;;;;4990256;28;19918;-71
2021/11/06 05:49:23;;;;;;;;;;;8.30;99.90;;;;;;4991310;28;19917;-72
2021/11/06 05:51:49;;;;;;;;;;;8.30;99.90;;;;;;4991723;28;20565;-72
2021/11/06 05:54:14;;;;;;;;;;;8.30;99.90;;;;;;4991465;28;20008;-72
2021/11/06 05:56:41;;;;;;;;;;;8.30;99.90;;;;;;4991457;28;19913;-74
2021/11/06 05:59:08;;;;;;;;;;;8.30;99.90;;;;;;4991577;28;20369;-74
2021/11/06 06:01:33;;;;;;;;;;;8.30;99.90;;;;;;4990459;28;20369;-74
2021/11/06 06:03:59;;;;;;;;;;;8.30;99.90;;;;;;4972846;28;19920;-74
2021/11/06 06:06:24;;;;;;;;;;;8.30;99.90;;;;;;4991678;28;19925;-73
2021/11/06 06:08:50;;;;;;;;;;;8.30;99.90;;;;;;4966173;28;19916;-73
2021/11/06 06:11:15;;;;;;;;;;;8.20;99.90;;;;;;4990715;28;20003;-73
2021/11/06 06:13:41;;;;;;;;;;;8.20;99.90;;;;;;4991006;28;20388;-74
2021/11/06 06:16:06;;;;;;;;;;;8.20;99.90;;;;;;4991442;28;19924;-74
2021/11/06 06:18:31;;;;;;;;;;;8.20;99.90;;;;;;4964113;28;19964;-72
2021/11/06 06:20:57;;;;;;;;;;;8.20;99.90;;;;;;4972364;28;19922;-77
2021/11/06 06:23:22;;;;;;;;;;;8.20;99.90;;;;;;4991136;28;19918;-72
2021/11/06 06:25:49;;;;;;;;;;;8.10;99.90;;;;;;4990496;28;20329;-73
2021/11/06 06:28:14;;;;;;;;;;;8.10;99.90;;;;;;4989642;28;19920;-72
2021/11/06 06:30:40;;;;;;;;;;;8.10;99.90;;;;;;4990826;28;20000;-73
2021/11/06 06:33:05;;;;;;;;;;;8.10;99.90;;;;;;4972600;28;19920;-73
2021/11/06 06:35:31;;;;;;;;;;;8.00;99.90;;;;;;4989977;28;20013;-72
2021/11/06 06:37:57;;;;;;;;;;;8.00;99.90;;;;;;4990725;28;19968;-73
2021/11/06 06:40:22;;;;;;;;;;;8.00;99.90;;;;;;4989783;28;20399;-73
2021/11/06 06:42:50;;;;;;;;;;;8.00;99.90;;;;;;4988647;28;21283;-73
2021/11/06 06:45:15;;;;;;;;;;;7.90;99.90;;;;;;4990842;28;19917;-73
2021/11/06 06:47:41;;;;;;;;;;;7.90;99.90;;;;;;4989542;28;20265;-73
2021/11/06 06:50:06;;;;;;;;;;;7.90;99.90;;;;;;4990259;28;19925;-72
2021/11/06 06:52:32;;;;;;;;;;;7.90;99.90;;;;;;4988666;28;19929;-72
2021/11/06 06:54:57;;;;;;;;;;;7.90;99.90;;;;;;4990461;28;19914;-73
2021/11/06 06:57:23;;;;;;;;;;;7.90;99.90;;;;;;4990293;28;19918;-72
2021/11/06 06:59:48;;;;;;;;;;;7.90;99.90;;;;;;4990045;28;19910;-72
2021/11/06 07:02:15;;;;;;;;;;;7.90;99.90;;;;;;4989582;28;19925;-74
2021/11/06 07:04:40;;;;;;;;;;;7.90;99.90;;;;;;4990623;28;20017;-73
2021/11/06 07:07:05;;;;;;;;;;;7.80;99.90;;;;;;4989984;28;19996;-75
2021/11/06 07:09:31;;;;;;;;;;;7.80;99.90;;;;;;4990248;28;19975;-74
2021/11/06 07:11:56;;;;;;;;;;;7.90;99.90;;;;;;4990253;28;19918;-74
2021/11/06 07:14:22;;;;;;;;;;;7.90;99.90;;;;;;4988534;28;19925;-74
2021/11/06 07:16:48;;;;;;;;;;;7.90;99.90;;;;;;4989010;28;19922;-74
2021/11/06 07:19:14;;;;;;;;;;;8.00;99.90;;;;;;4990428;28;19953;-74
2021/11/06 07:21:39;;;;;;;;;;;8.00;99.90;;;;;;4971575;28;20041;-74
2021/11/06 07:24:05;;;;;;;;;;;8.00;99.90;;;;;;4988039;28;19921;-74
2021/11/06 07:26:32;;;;;;;;;;;8.10;99.90;;;;;;4987455;28;20361;-75
2021/11/06 07:28:57;;;;;;;;;;;8.10;99.90;;;;;;4989880;28;19920;-74
2021/11/06 07:31:23;;;;;;;;;;;8.10;99.90;;;;;;4989432;28;19913;-74
2021/11/06 07:33:49;;;;;;;;;;;8.10;99.90;;;;;;4989437;28;20349;-74
2021/11/06 07:36:15;;;;;;;;;;;8.10;99.90;;;;;;4989892;28;19917;-75
2021/11/06 07:38:40;;;;;;;;;;;8.20;99.90;;;;;;4990101;28;20368;-73
2021/11/06 07:41:06;;;;;;;;;;;8.20;99.90;;;;;;4986901;28;19960;-73
2021/11/06 07:43:33;;;;;;;;;;;8.30;99.90;;;;;;4989478;28;19925;-74
2021/11/06 07:45:59;;;;;;;;;;;8.30;99.90;;;;;;4989004;28;19968;-74
2021/11/06 07:48:24;;;;;;;;;;;8.30;99.90;;;;;;4987021;28;19918;-74
2021/11/06 07:50:50;;;;;;;;;;;8.30;99.90;;;;;;4987461;28;19961;-72
2021/11/06 07:53:15;;;;;;;;;;;8.40;99.90;;;;;;4989194;28;19917;-71
2021/11/06 07:55:41;;;;;;;;;;;8.50;99.90;;;;;;4969790;28;19971;-72
2021/11/06 07:58:09;;;;;;;;;;;8.80;99.90;;;;;;4977850;28;19913;-71
2021/11/06 08:00:35;;;;;;;;;;;8.90;99.90;;;;;;4988860;28;19974;-71
2021/11/06 08:03:00;;;;;;;;;;;8.90;99.90;;;;;;4987852;28;19914;-71
2021/11/06 08:05:26;;;;;;;;;;;8.80;99.90;;;;;;4989477;28;19936;-71
2021/11/06 08:07:51;;;;;;;;;;;8.80;99.90;;;;;;4989852;28;19909;-71
2021/11/06 08:10:17;;;;;;;;;;;8.80;99.90;;;;;;4989446;28;20284;-71
2021/11/06 08:12:42;;;;;;;;;;;8.80;99.90;;;;;;4989860;28;19914;-71
2021/11/06 08:15:09;;;;;;;;;;;8.90;99.90;;;;;;4989059;28;19914;-70
2021/11/06 08:17:35;;;;;;;;;;;8.90;99.90;;;;;;4972518;28;19909;-70
2021/11/06 08:20:00;;;;;;;;;;;9.00;99.90;;;;;;4987763;28;20396;-71
2021/11/06 08:22:25;;;;;;;;;;;9.00;99.90;;;;;;4989050;28;19928;-71
2021/11/06 08:24:51;;;;;;;;;;;9.00;99.90;;;;;;4989622;28;19914;-71
2021/11/06 08:27:17;;;;;;;;;;;9.00;99.90;;;;;;4989222;28;19922;-71
2021/11/06 08:29:42;;;;;;;;;;;9.10;99.90;;;;;;4971977;28;19918;-70
2021/11/06 08:32:07;;;;;;;;;;;9.10;99.90;;;;;;4964153;28;19920;-71
2021/11/06 08:34:33;;;;;;;;;;;9.20;99.90;;;;;;4970433;28;20373;-70
2021/11/06 08:36:58;;;;;;;;;;;9.20;99.90;;;;;;4989344;28;19924;-70
2021/11/06 08:39:24;;;;;;;;;;;9.30;99.90;;;;;;4964249;28;19957;-70
2021/11/06 08:41:50;;;;;;;;;;;9.30;99.90;;;;;;4988968;28;20071;-70
2021/11/06 08:44:17;;;;;;;;;;;9.40;99.90;;;;;;4989325;28;19914;-70
2021/11/06 08:46:44;;;;;;;;;;;9.40;99.90;;;;;;4988771;28;19964;-71
2021/11/06 08:49:11;;;;;;;;;;;9.50;99.90;;;;;;4971680;28;20312;-71
2021/11/06 08:51:36;;;;;;;;;;;9.50;99.90;;;;;;4987043;28;19921;-72
2021/11/06 08:54:02;;;;;;;;;;;9.50;99.90;;;;;;4975830;28;19922;-71
2021/11/06 08:56:29;;;;;;;;;;;9.60;99.90;;;;;;4992866;28;19921;-70
2021/11/06 08:58:55;;;;;;;;;;;9.60;99.90;;;;;;4993518;28;19914;-70
2021/11/06 09:01:20;;;;;;;;;;;9.60;99.90;;;;;;4992010;28;20757;-70
2021/11/06 09:03:46;;;;;;;;;;;9.70;99.90;;;;;;4993374;28;19910;-70
2021/11/06 09:06:11;;;;;;;;;;;9.70;99.90;;;;;;4968636;28;20274;-70
2021/11/06 09:08:41;;;;;;;;;;;9.80;99.90;;;;;;4992363;28;19996;-70
2021/11/06 09:11:09;;;;;;;;;;;9.80;99.90;;;;;;4991423;28;19921;-70
2021/11/06 09:13:35;;;;;;;;;;;9.80;99.90;;;;;;4993058;28;19913;-70
2021/11/06 09:16:07;;;;;;;;;;;9.90;99.90;;;;;;4992344;28;20485;-70
2021/11/06 09:18:33;;;;;;;;;;;10.00;99.90;;;;;;4992571;28;20277;-70
2021/11/06 09:20:59;;;;;;;;;;;10.10;99.90;;;;;;4992120;28;19925;-70
2021/11/06 09:23:24;;;;;;;;;;;10.10;99.90;;;;;;4992804;28;19914;-70
2021/11/06 09:25:50;;;;;;;;;;;10.20;99.90;;;;;;4990960;28;19925;-71
2021/11/06 09:28:15;;;;;;;;;;;10.20;99.70;;;;;;4992456;28;20329;-71
2021/11/06 09:30:41;;;;;;;;;;;10.30;99.70;;;;;;4974448;28;19914;-71
2021/11/06 09:33:06;;;;;;;;;;;10.30;99.50;;;;;;4992303;28;19918;-70
2021/11/06 09:35:32;;;;;;;;;;;10.30;99.40;;;;;;4973044;28;19920;-71
2021/11/06 09:37:58;;;;;;;;;;;10.30;99.50;;;;;;4992086;28;20425;-70
2021/11/06 09:40:23;;;;;;;;;;;10.30;99.50;;;;;;4991313;28;19914;-71
2021/11/06 09:42:49;;;;;;;;;;;10.30;99.20;;;;;;4992578;28;19921;-71
2021/11/06 09:45:15;;;;;;;;;;;10.40;99.10;;;;;;4974406;28;19965;-71
2021/11/06 09:47:43;;;;;;;;;;;10.40;99.00;;;;;;4992181;28;20362;-71
2021/11/06 09:50:10;;;;;;;;;;;10.40;99.10;;;;;;4967263;28;19921;-71
2021/11/06 09:52:35;;;;;;;;;;;10.40;99.20;;;;;;4974472;28;19929;-71
2021/11/06 09:55:00;;;;;;;;;;;10.40;99.10;;;;;;4991838;28;20399;-71
2021/11/06 09:57:26;;;;;;;;;;;10.40;98.90;;;;;;4992124;28;19914;-70
2021/11/06 09:59:51;;;;;;;;;;;10.40;98.50;;;;;;4991735;28;19988;-72
2021/11/06 10:02:17;;;;;;;;;;;10.50;98.70;;;;;;4990828;28;20474;-70
2021/11/06 10:04:42;;;;;;;;;;;10.40;98.60;;;;;;4964935;28;19914;-70
2021/11/06 10:07:18;;;;;;;;;;;10.50;99.80;;;;;;4990595;28;19968;-71
2021/11/06 10:10:13;;;;;;;;;;;10.80;99.00;;;;;;4991225;28;19922;-71
2021/11/06 10:12:44;;;;;;;;;;;10.80;98.80;;;;;;4972935;28;19910;-71
2021/11/06 10:15:10;;;;;;;;;;;10.70;97.80;;;;;;4973485;28;20287;-70
2021/11/06 10:17:36;;;;;;;;;;;10.70;98.00;;;;;;4991223;28;19913;-73
2021/11/06 10:20:18;;;;;;;;;;;10.60;98.10;;;;;;4971721;28;19928;-70
2021/11/06 10:22:43;;;;;;;;;;;10.50;97.90;;;;;;4990542;28;19922;-70
2021/11/06 10:25:09;;;;;;;;;;;10.50;98.10;;;;;;4990811;28;20043;-70
2021/11/06 10:27:34;;;;;;;;;;;10.40;98.20;;;;;;4989085;28;19941;-69
2021/11/06 10:30:16;;;;;;;;;;;10.40;98.20;;;;;;4988884;28;20000;-71
2021/11/06 10:32:45;;;;;;;;;;;10.30;98.40;;;;;;4988480;28;20283;-71
2021/11/06 10:35:15;;;;;;;;;;;10.30;98.60;;;;;;4988749;28;20452;-71
2021/11/06 10:37:40;;;;;;;;;;;10.30;98.10;;;;;;4989638;28;19920;-70
2021/11/06 10:40:09;;;;;;;;;;;10.30;98.30;;;;;;4990779;28;19914;-70
2021/11/06 10:42:36;;;;;;;;;;;10.20;98.00;;;;;;4973647;28;19917;-70
2021/11/06 10:45:11;;;;;;;;;;;10.20;98.20;;;;;;4989945;28;19914;-70
2021/11/06 10:47:56;;;;;;;;;;;10.20;98.00;;;;;;4990806;28;20380;-70
2021/11/06 10:50:40;;;;;;;;;;;10.20;98.10;;;;;;4988294;28;19922;-71
2021/11/06 10:53:07;;;;;;;;;;;10.20;98.20;;;;;;4990158;28;19918;-70
2021/11/06 10:55:36;;;;;;;;;;;10.20;98.40;;;;;;4989267;28;20408;-71
2021/11/06 10:58:02;;;;;;;;;;;10.10;98.30;;;;;;4989958;28;19917;-71
2021/11/06 11:00:28;;;;;;;;;;;10.10;98.30;;;;;;4989296;28;19929;-70
2021/11/06 11:02:53;;;;;;;;;;;10.10;98.10;;;;;;4989327;28;19918;-70
2021/11/06 11:05:37;;;;;;;;;;;10.10;98.30;;;;;;4988356;28;19964;-70
2021/11/06 11:08:05;;;;;;;;;;;10.20;98.30;;;;;;4988553;28;20324;-70
2021/11/06 11:10:31;;;;;;;;;;;10.20;98.00;;;;;;4990675;28;20425;-70
2021/11/06 11:13:09;;;;;;;;;;;10.20;97.70;;;;;;4990660;28;19910;-70
2021/11/06 11:15:35;;;;;;;;;;;10.10;97.80;;;;;;4990058;28;20270;-70
2021/11/06 11:18:00;;;;;;;;;;;10.20;97.70;;;;;;4989943;28;19989;-70
2021/11/06 11:20:27;;;;;;;;;;;10.20;97.70;;;;;;4989749;28;20396;-70
2021/11/06 11:23:06;;;;;;;;;;;10.10;97.70;;;;;;4988839;28;19928;-71
2021/11/06 11:25:32;;;;;;;;;;;10.20;97.90;;;;;;4990679;28;19918;-70
2021/11/06 11:27:58;;;;;;;;;;;10.20;97.90;;;;;;4987515;28;19932;-70
2021/11/06 11:30:23;;;;;;;;;;;10.10;98.20;;;;;;4965821;28;19973;-70
2021/11/06 11:32:48;;;;;;;;;;;10.10;98.40;;;;;;4987491;28;19917;-69
2021/11/06 11:35:14;;;;;;;;;;;10.00;98.70;;;;;;4990368;28;20007;-70
2021/11/06 11:37:39;;;;;;;;;;;10.00;99.00;;;;;;4986570;28;19953;-70
2021/11/06 11:40:06;;;;;;;;;;;10.00;99.10;;;;;;4988535;28;19918;-69
2021/11/06 11:42:53;;;;;;;;;;;10.00;99.70;;;;;;4986959;28;19922;-69
2021/11/06 11:45:21;;;;;;;;;;;10.00;99.20;;;;;;4987963;28;20338;-69
2021/11/06 11:47:51;;;;;;;;;;;10.00;99.00;;;;;;4969556;28;19961;-70
2021/11/06 11:50:18;;;;;;;;;;;10.00;98.90;;;;;;4988594;28;20016;-70
2021/11/06 11:52:48;;;;;;;;;;;10.00;99.00;;;;;;4987557;28;20640;-71
2021/11/06 11:55:18;;;;;;;;;;;10.00;98.80;;;;;;4988352;28;19914;-71
2021/11/06 11:57:49;;;;;;;;;;;10.00;98.90;;;;;;5102441;23;20271;-66
2021/11/06 12:00:18;;;;;;;;;;;10.10;98.60;;;;;;5068088;28;19956;-68
2021/11/06 12:03:00;;;;;;;;;;;10.10;98.80;;;;;;5064335;28;19921;-68
2021/11/06 12:05:25;;;;;;;;;;;10.10;98.80;;;;;;5041885;28;19913;-68
2021/11/06 12:08:09;;;;;;;;;;;10.10;98.50;;;;;;5066087;28;19919;-68
2021/11/06 12:10:35;;;;;;;;;;;10.10;98.80;;;;;;5064630;28;19916;-69
2021/11/06 12:13:04;;;;;;;;;;;10.10;98.50;;;;;;5040707;28;19955;-68
2021/11/06 12:15:49;;;;;;;;;;;10.20;98.40;;;;;;5064016;28;19969;-68
2021/11/06 12:18:36;;;;;;;;;;;10.20;97.90;;;;;;5065814;28;20457;-68
2021/11/06 12:21:14;;;;;;;;;;;10.20;98.20;;;;;;5066948;28;19920;-68
2021/11/06 12:23:40;;;;;;;;;;;10.20;97.90;;;;;;5058796;28;19920;-68
2021/11/06 12:26:16;;;;;;;;;;;10.30;98.00;;;;;;5067167;28;19912;-67
2021/11/06 12:28:42;;;;;;;;;;;10.30;97.90;;;;;;5071955;28;20473;-66
2021/11/06 12:31:23;;;;;;;;;;;10.30;97.60;;;;;;5069164;28;20088;-66
2021/11/06 12:33:49;;;;;;;;;;;10.30;97.90;;;;;;5072769;28;19942;-67
2021/11/06 12:36:16;;;;;;;;;;;10.30;97.50;;;;;;5070153;28;19920;-67
2021/11/06 12:38:41;;;;;;;;;;;10.30;97.60;;;;;;5062614;28;20386;-66
2021/11/06 12:41:07;;;;;;;;;;;10.20;97.70;;;;;;5051856;28;20013;-68
2021/11/06 12:43:32;;;;;;;;;;;10.30;97.60;;;;;;5054294;28;19963;-68
2021/11/06 12:46:13;;;;;;;;;;;10.30;97.90;;;;;;5053098;28;20168;-70
2021/11/06 12:48:43;;;;;;;;;;;10.30;97.80;;;;;;5070018;28;19913;-71
2021/11/06 12:51:10;;;;;;;;;;;10.30;97.60;;;;;;5068030;28;20037;-70
2021/11/06 12:53:37;;;;;;;;;;;10.30;97.70;;;;;;5070948;28;19908;-70
2021/11/06 12:56:05;;;;;;;;;;;10.40;97.80;;;;;;5069853;28;19919;-67
2021/11/06 12:58:32;;;;;;;;;;;10.30;97.50;;;;;;5071077;28;20014;-67
2021/11/06 13:01:11;;;;;;;;;;;10.40;97.70;;;;;;5069638;28;19935;-71
2021/11/06 13:03:42;;;;;;;;;;;10.40;97.70;;;;;;5072343;28;19913;-71
2021/11/06 13:06:15;;;;;;;;;;;10.40;97.60;;;;;;5068280;28;19920;-71
2021/11/06 13:08:41;;;;;;;;;;;10.50;97.50;;;;;;5045895;28;19909;-71
2021/11/06 13:11:06;;;;;;;;;;;10.50;97.50;;;;;;5068720;28;20011;-67
2021/11/06 13:13:32;;;;;;;;;;;10.60;97.60;;;;;;5071795;28;19935;-67
2021/11/06 13:15:59;;;;;;;;;;;10.60;97.40;;;;;;5061275;28;20367;-67
2021/11/06 13:18:24;;;;;;;;;;;10.60;97.30;;;;;;5050378;28;20095;-68
2021/11/06 13:20:52;;;;;;;;;;;10.60;97.50;;;;;;5071265;28;20291;-66
2021/11/06 13:23:17;;;;;;;;;;;10.60;97.50;;;;;;5069628;28;19916;-68
2021/11/06 13:25:44;;;;;;;;;;;10.70;97.60;;;;;;5071843;28;20331;-68
2021/11/06 13:28:14;;;;;;;;;;;10.70;97.50;;;;;;5069553;28;19912;-70
2021/11/06 13:30:43;;;;;;;;;;;10.70;97.60;;;;;;5052360;28;20367;-68
2021/11/06 13:33:11;;;;;;;;;;;10.70;97.60;;;;;;5060605;28;19920;-68
2021/11/06 13:35:38;;;;;;;;;;;10.70;97.60;;;;;;5067071;28;19920;-68
2021/11/06 13:38:18;;;;;;;;;;;10.80;98.10;;;;;;5060818;28;20004;-68
2021/11/06 13:40:45;;;;;;;;;;;10.90;97.60;;;;;;5070903;28;19955;-70
2021/11/06 13:43:21;;;;;;;;;;;10.90;97.40;;;;;;5052202;28;20390;-75
2021/11/06 13:46:05;;;;;;;;;;;10.80;97.50;;;;;;5070271;28;19913;-75
2021/11/06 13:48:37;;;;;;;;;;;10.80;97.70;;;;;;5060741;28;19923;-70
2021/11/06 13:51:14;;;;;;;;;;;10.80;97.60;;;;;;5060635;28;19916;-70
2021/11/06 13:53:39;;;;;;;;;;;10.70;97.70;;;;;;5065206;28;19916;-70
2021/11/06 13:56:05;;;;;;;;;;;10.70;97.70;;;;;;5070507;28;20300;-71
2021/11/06 13:58:30;;;;;;;;;;;10.70;97.70;;;;;;5070195;28;19920;-70
2021/11/06 14:00:59;;;;;;;;;;;10.70;97.70;;;;;;5071035;28;19988;-70
2021/11/06 14:03:25;;;;;;;;;;;10.70;97.70;;;;;;5068037;28;20416;-71
2021/11/06 14:05:50;;;;;;;;;;;10.70;97.80;;;;;;5070916;28;19916;-70
2021/11/06 14:08:16;;;;;;;;;;;10.70;97.80;;;;;;5069056;28;19974;-71
2021/11/06 14:10:43;;;;;;;;;;;10.70;97.80;;;;;;5069549;28;19919;-73
2021/11/06 14:13:15;;;;;;;;;;;10.70;97.90;;;;;;5051919;28;19955;-75
2021/11/06 14:15:43;;;;;;;;;;;10.70;97.90;;;;;;5060834;28;19962;-75
2021/11/06 14:18:11;;;;;;;;;;;10.70;97.90;;;;;;5066729;28;19923;-75
2021/11/06 14:20:44;;;;;;;;;;;10.70;97.90;;;;;;5070387;28;19938;-75
2021/11/06 14:23:12;;;;;;;;;;;10.80;98.00;;;;;;5050372;28;19912;-75
2021/11/06 14:25:40;;;;;;;;;;;10.80;98.00;;;;;;5051743;28;19954;-76
2021/11/06 14:28:06;;;;;;;;;;;10.80;97.90;;;;;;5050521;28;20383;-76
2021/11/06 14:30:32;;;;;;;;;;;10.80;97.90;;;;;;5052364;28;19912;-76
2021/11/06 14:32:58;;;;;;;;;;;10.80;98.10;;;;;;5050101;28;19916;-72